Jefferson, Louisiana
Current Conditions -  °F | °C
As of 3:53 AM on Sunday 25 Jan 2015 (Local Time) from KMSY Reporting Station
Few Clouds Few Clouds  
Wind Chill: 40°   Ceiling: Unl
Heat Index: 44°   Visibility: 10mi
Dew Point: 40°   Wind: 7mph
Humidity: 85%   Direction: 220°SW
Pressure: 30.06"   Gusts: NA
Location:  29.96°N, 90.17°W
Report Text: KMSY 250953Z 22006KT 10SM FEW250 07/04 A3006 RMK AO2 SLP182 T00670044
Loading
Personal Weather Stations






























Interactive Weather Map New forecast layout! Learn more

10-Day Weather Forecast

Advertisements
Track Severe Weather on mobile